Time;durP1;ratioP1;P1;durP2;ratioP2;P2;SDS_P1;SDS_P2;PMS_P1;PMS_P2;Temp;Humidity;BMP_temperature;BMP_pressure;BME280_temperature;BME280_humidity;BME280_pressure;Samples;Min_cycle;Max_cycle;Signal;HPM_P1;HPM_P2
2022/05/14 00:00:53;;;;;;;18.38;5.53;;;17.60;79.70;;;;;;6240731;22;20003;-68
2022/05/14 00:03:20;;;;;;;15.75;5.35;;;17.60;80.10;;;;;;6242183;22;20020;-67
2022/05/14 00:05:48;;;;;;;20.08;6.38;;;17.60;80.40;;;;;;6240793;22;20000;-69
2022/05/14 00:08:15;;;;;;;15.23;5.97;;;17.50;80.60;;;;;;6242118;22;20039;-69
2022/05/14 00:13:27;;;;;;;21.23;7.20;;;17.60;81.10;;;;;;6240685;23;20011;-69
2022/05/14 00:15:54;;;;;;;19.40;5.53;;;17.50;81.80;;;;;;6241743;22;20008;-69
2022/05/14 00:18:21;;;;;;;18.40;5.43;;;17.50;81.30;;;;;;6240569;22;20008;-70
2022/05/14 00:20:48;;;;;;;19.52;5.82;;;17.50;81.40;;;;;;6241948;22;20051;-69
2022/05/14 00:23:14;;;;;;;14.43;4.70;;;17.50;81.60;;;;;;6240849;22;20012;-69
2022/05/14 00:25:42;;;;;;;15.18;5.38;;;17.50;81.70;;;;;;6241567;22;20039;-70
2022/05/14 00:28:08;;;;;;;15.35;5.30;;;17.50;81.70;;;;;;6241729;22;20083;-69
2022/05/14 00:30:36;;;;;;;12.63;4.93;;;17.50;81.80;;;;;;6240980;22;20000;-69
2022/05/14 00:33:03;;;;;;;15.68;3.83;;;17.50;81.90;;;;;;6242233;22;20442;-69
2022/05/14 00:35:30;;;;;;;12.68;3.63;;;17.50;82.00;;;;;;6240923;22;20000;-69
2022/05/14 00:37:56;;;;;;;11.65;4.28;;;17.50;82.00;;;;;;6241728;23;20003;-68
2022/05/14 00:40:39;;;;;;;8.68;4.00;;;17.50;82.10;;;;;;6240688;22;20001;-69
2022/05/14 00:43:07;;;;;;;9.10;3.35;;;17.50;82.20;;;;;;6241237;22;20067;-68
2022/05/14 00:45:37;;;;;;;11.80;2.65;;;17.50;82.50;;;;;;6242013;22;20028;-69
2022/05/14 00:48:04;;;;;;;13.00;3.33;;;17.50;82.70;;;;;;6240672;22;20073;-69
2022/05/14 00:50:49;;;;;;;6.25;2.72;;;17.50;82.90;;;;;;6243348;22;20079;-70
2022/05/14 00:53:18;;;;;;;13.77;3.93;;;17.50;83.00;;;;;;6242588;22;20011;-67
2022/05/14 00:55:48;;;;;;;8.85;4.03;;;17.50;83.00;;;;;;6244060;22;20237;-70
2022/05/14 00:58:44;;;;;;;7.43;2.60;;;17.50;83.10;;;;;;6243366;22;20337;-69
2022/05/14 01:01:11;;;;;;;8.45;2.42;;;17.50;83.10;;;;;;6229870;23;20452;-68
2022/05/14 01:03:37;;;;;;;8.75;3.05;;;17.40;83.10;;;;;;6243415;22;20438;-69
2022/05/14 01:06:08;;;;;;;16.42;4.18;;;17.40;83.10;;;;;;6242304;22;20028;-69
2022/05/14 01:08:35;;;;;;;7.38;3.15;;;17.40;83.10;;;;;;6244301;22;20022;-69
2022/05/14 01:11:03;;;;;;;6.38;2.70;;;17.40;83.20;;;;;;6242774;22;20006;-69
2022/05/14 01:13:31;;;;;;;13.07;2.65;;;17.40;83.20;;;;;;6242864;22;20008;-69
2022/05/14 01:16:02;;;;;;;12.02;4.35;;;17.40;83.20;;;;;;6243336;22;20016;-69
2022/05/14 01:18:32;;;;;;;5.90;2.13;;;17.40;83.20;;;;;;6242276;22;20094;-69
2022/05/14 01:21:07;;;;;;;8.77;2.78;;;17.40;83.30;;;;;;6243388;22;19997;-69
2022/05/14 01:26:47;;;;;;;6.70;2.00;;;17.40;83.20;;;;;;6242584;23;20023;-69
2022/05/14 01:29:19;;;;;;;8.77;1.95;;;17.40;83.20;;;;;;6243646;22;20507;-66
2022/05/14 01:31:47;;;;;;;7.20;2.35;;;17.30;83.20;;;;;;6242020;22;20077;-68
2022/05/14 01:34:27;;;;;;;8.35;3.33;;;17.30;83.20;;;;;;6243158;22;20000;-68
2022/05/14 01:36:55;;;;;;;11.18;4.10;;;17.30;83.20;;;;;;6242678;22;20006;-68
2022/05/14 01:39:22;;;;;;;11.57;2.70;;;17.30;83.20;;;;;;6242958;22;20050;-68
2022/05/14 01:41:48;;;;;;;8.80;2.22;;;17.30;83.20;;;;;;6243013;22;20071;-70
2022/05/14 01:44:15;;;;;;;6.93;2.05;;;17.30;83.20;;;;;;6242013;22;20027;-69
2022/05/14 01:46:42;;;;;;;7.28;2.33;;;17.20;83.20;;;;;;6243484;22;20000;-69
2022/05/14 01:49:08;;;;;;;8.98;2.85;;;17.20;83.00;;;;;;6242024;22;20076;-69
2022/05/14 01:51:35;;;;;;;7.28;2.53;;;17.20;83.10;;;;;;6241419;23;20415;-68
2022/05/14 01:54:02;;;;;;;7.82;2.45;;;17.20;83.00;;;;;;6242083;22;20000;-69
2022/05/14 01:56:29;;;;;;;10.00;2.35;;;17.20;83.00;;;;;;6243253;22;20330;-69
2022/05/14 01:58:55;;;;;;;5.57;1.90;;;17.20;82.90;;;;;;6242760;22;20000;-69
2022/05/14 02:01:29;;;;;;;9.07;1.63;;;17.20;82.90;;;;;;6242220;22;20075;-69
2022/05/14 02:04:04;;;;;;;6.80;1.58;;;17.20;83.60;;;;;;6242845;22;20016;-69
2022/05/14 02:06:31;;;;;;;4.85;1.92;;;17.20;82.90;;;;;;6241807;22;20256;-69
2022/05/14 02:08:59;;;;;;;6.57;2.20;;;17.10;82.80;;;;;;6243013;22;20367;-67
2022/05/14 02:11:26;;;;;;;3.22;2.00;;;17.10;82.80;;;;;;6242218;22;20445;-69
2022/05/14 02:13:54;;;;;;;9.57;1.85;;;17.10;82.80;;;;;;6242519;22;20368;-69
2022/05/14 02:16:21;;;;;;;6.13;2.05;;;17.10;82.90;;;;;;6242601;22;20075;-68
2022/05/14 02:18:48;;;;;;;5.22;2.78;;;17.10;82.90;;;;;;6241812;22;20043;-68
2022/05/14 02:21:15;;;;;;;4.40;1.98;;;17.10;83.10;;;;;;6243703;22;20000;-68
2022/05/14 02:23:42;;;;;;;6.13;2.47;;;17.10;83.20;;;;;;6241632;22;20012;-69
2022/05/14 02:26:11;;;;;;;13.93;4.60;;;17.10;83.10;;;;;;6241222;23;20000;-69
2022/05/14 02:28:39;;;;;;;9.15;4.18;;;17.10;83.10;;;;;;6241536;22;20028;-68
2022/05/14 02:31:05;;;;;;;5.90;2.33;;;17.10;83.20;;;;;;6242656;22;20000;-67
2022/05/14 02:33:32;;;;;;;6.47;2.70;;;17.00;83.20;;;;;;6242157;22;20050;-67
2022/05/14 02:35:59;;;;;;;6.18;2.08;;;17.00;83.20;;;;;;6241988;22;20359;-66
2022/05/14 02:38:28;;;;;;;6.03;2.60;;;17.00;83.30;;;;;;6242776;22;20009;-66
2022/05/14 02:40:55;;;;;;;6.47;2.35;;;17.00;83.30;;;;;;6241729;22;20027;-66
2022/05/14 02:43:21;;;;;;;7.72;1.90;;;17.00;83.20;;;;;;6242838;22;20044;-68
2022/05/14 02:45:48;;;;;;;9.75;2.95;;;17.00;83.20;;;;;;6241420;22;20019;-68
2022/05/14 02:48:15;;;;;;;5.72;1.90;;;17.00;83.10;;;;;;6240866;23;20075;-69
2022/05/14 02:50:42;;;;;;;3.67;1.38;;;17.00;83.10;;;;;;6241881;22;20000;-69
2022/05/14 02:53:09;;;;;;;5.18;1.90;;;16.90;82.90;;;;;;6241964;22;20006;-67
2022/05/14 02:55:35;;;;;;;7.70;2.38;;;16.90;82.70;;;;;;6242560;22;20000;-69
2022/05/14 02:58:02;;;;;;;2.95;1.38;;;17.00;82.70;;;;;;6241161;22;20007;-69
2022/05/14 03:00:28;;;;;;;2.95;1.48;;;17.00;82.50;;;;;;6243222;22;20007;-65
2022/05/14 03:02:55;;;;;;;4.95;1.35;;;16.90;82.20;;;;;;6241050;22;20008;-69
2022/05/14 03:05:23;;;;;;;5.15;1.70;;;16.90;82.10;;;;;;6242267;22;20367;-69
2022/05/14 03:07:50;;;;;;;5.32;1.27;;;16.90;82.00;;;;;;6241404;22;20035;-68
2022/05/14 03:10:16;;;;;;;4.22;2.30;;;16.90;81.90;;;;;;6242131;22;20075;-69
2022/05/14 03:12:43;;;;;;;5.03;1.60;;;16.80;81.90;;;;;;6241960;22;20008;-69
2022/05/14 03:15:11;;;;;;;4.95;2.00;;;16.80;81.80;;;;;;6241189;22;20323;-69
2022/05/14 03:17:38;;;;;;;4.15;1.30;;;16.80;81.70;;;;;;6241135;22;20753;-69
2022/05/14 03:20:07;;;;;;;1.98;1.38;;;16.80;81.60;;;;;;6240823;23;20658;-69
2022/05/14 03:22:38;;;;;;;2.13;1.50;;;16.80;81.50;;;;;;6242520;22;20103;-67
2022/05/14 03:25:06;;;;;;;3.22;1.02;;;16.70;81.40;;;;;;6241257;22;20462;-69
2022/05/14 03:27:33;;;;;;;1.95;1.23;;;16.70;81.40;;;;;;6241922;22;20004;-68
2022/05/14 03:30:00;;;;;;;2.03;0.70;;;16.70;81.30;;;;;;6242076;22;20000;-68
2022/05/14 03:32:26;;;;;;;2.13;0.82;;;16.70;81.20;;;;;;6241410;22;20035;-69
2022/05/14 03:34:58;;;;;;;2.65;0.93;;;16.70;81.10;;;;;;6242169;22;20004;-70
2022/05/14 03:37:25;;;;;;;2.92;0.90;;;16.70;81.00;;;;;;6240893;22;20126;-69
2022/05/14 03:39:51;;;;;;;2.45;0.70;;;16.70;81.00;;;;;;6242111;22;20403;-68
2022/05/14 03:42:18;;;;;;;5.07;0.90;;;16.70;81.10;;;;;;6241045;22;20011;-69
2022/05/14 03:44:48;;;;;;;4.15;0.80;;;16.70;81.20;;;;;;6242183;22;19996;-69
2022/05/14 03:47:15;;;;;;;3.28;0.85;;;16.60;81.30;;;;;;6241757;22;20027;-69
2022/05/14 03:49:42;;;;;;;7.55;0.80;;;16.60;81.40;;;;;;6241172;22;20388;-69
2022/05/14 03:52:09;;;;;;;3.55;0.93;;;16.60;81.60;;;;;;6240439;23;20011;-68
2022/05/14 03:54:35;;;;;;;4.88;1.08;;;16.60;81.70;;;;;;6241036;22;20008;-69
2022/05/14 03:57:02;;;;;;;3.33;0.95;;;16.60;81.80;;;;;;6242018;22;20007;-69
2022/05/14 04:00:08;;;;;;;3.70;1.48;;;16.60;81.80;;;;;;6240091;22;20000;-68
2022/05/14 04:03:14;;;;;;;2.25;0.93;;;16.60;81.90;;;;;;6240781;22;20012;-67
2022/05/14 04:06:20;;;;;;;6.30;1.80;;;16.60;82.00;;;;;;6242267;22;20023;-69
2022/05/14 04:09:26;;;;;;;7.82;1.73;;;16.60;82.00;;;;;;6241809;22;20000;-69
2022/05/14 04:12:32;;;;;;;2.72;0.90;;;16.60;82.00;;;;;;6241015;22;20000;-69
2022/05/14 04:15:38;;;;;;;1.90;0.80;;;16.60;81.90;;;;;;6241945;22;20359;-69
2022/05/14 04:18:44;;;;;;;5.72;0.70;;;16.60;82.00;;;;;;6241740;22;20015;-68
2022/05/14 04:21:50;;;;;;;4.85;1.40;;;16.60;82.10;;;;;;6240427;22;20054;-69
2022/05/14 04:24:56;;;;;;;2.35;0.70;;;16.60;82.20;;;;;;6241486;22;20019;-69
2022/05/14 04:28:02;;;;;;;5.88;1.20;;;16.60;82.20;;;;;;6244071;22;20672;-68
2022/05/14 04:31:08;;;;;;;1.88;0.93;;;16.60;82.00;;;;;;6243844;22;20001;-68
2022/05/14 04:34:15;;;;;;;4.18;1.42;;;16.60;81.90;;;;;;6242618;22;20050;-70
2022/05/14 04:36:44;;;;;;;3.25;1.75;;;16.60;81.80;;;;;;6242073;23;20388;-71
2022/05/14 04:39:12;;;;;;;3.33;1.00;;;16.60;81.80;;;;;;6241897;23;20058;-68
2022/05/14 04:41:43;;;;;;;4.30;1.35;;;16.60;81.90;;;;;;6243231;22;20446;-70
2022/05/14 04:44:09;;;;;;;4.13;1.95;;;16.60;82.10;;;;;;6241992;23;20043;-69
2022/05/14 04:46:36;;;;;;;4.95;2.25;;;16.60;82.20;;;;;;6242478;22;19997;-70
2022/05/14 04:49:13;;;;;;;8.73;2.58;;;16.60;82.50;;;;;;6242752;22;20328;-71
2022/05/14 04:51:40;;;;;;;7.18;2.42;;;16.60;82.80;;;;;;6239954;23;20004;-67
2022/05/14 04:54:11;;;;;;;4.45;2.63;;;16.60;82.90;;;;;;6241933;23;20032;-67
2022/05/14 04:56:38;;;;;;;6.78;3.00;;;16.60;83.10;;;;;;6240889;23;20004;-65
2022/05/14 04:59:08;;;;;;;6.05;2.53;;;16.60;83.20;;;;;;6243543;22;20000;-67
2022/05/14 05:01:35;;;;;;;10.88;2.88;;;16.60;83.30;;;;;;6241230;23;20015;-67
2022/05/14 05:04:03;;;;;;;5.70;1.75;;;16.60;83.40;;;;;;6243190;22;20019;-68
2022/05/14 05:06:29;;;;;;;5.63;2.17;;;16.60;83.40;;;;;;6240770;23;20047;-68
2022/05/14 05:08:56;;;;;;;3.80;2.17;;;16.60;83.50;;;;;;6242768;22;20020;-69
2022/05/14 05:11:23;;;;;;;2.90;1.85;;;16.60;84.10;;;;;;6241744;23;20087;-70
2022/05/14 05:13:50;;;;;;;2.83;1.02;;;16.60;83.50;;;;;;6241945;22;20416;-68
2022/05/14 05:16:16;;;;;;;2.58;1.55;;;16.60;83.50;;;;;;6243209;22;20012;-69
2022/05/14 05:18:43;;;;;;;4.40;1.33;;;16.60;83.60;;;;;;6242562;22;19997;-69
2022/05/14 05:21:09;;;;;;;4.80;1.80;;;16.60;83.70;;;;;;6243443;22;20458;-70
2022/05/14 05:23:36;;;;;;;2.15;1.60;;;16.60;83.70;;;;;;6242294;22;20019;-69
2022/05/14 05:26:03;;;;;;;3.60;1.50;;;16.60;83.60;;;;;;6243182;22;20031;-67
2022/05/14 05:28:29;;;;;;;3.58;1.73;;;16.60;83.60;;;;;;6243055;22;20004;-69
2022/05/14 05:30:56;;;;;;;1.63;1.50;;;16.60;83.50;;;;;;6242467;22;20007;-68
2022/05/14 05:33:25;;;;;;;4.57;1.77;;;16.60;83.50;;;;;;6243304;22;20000;-67
2022/05/14 05:35:52;;;;;;;7.57;2.05;;;16.60;83.50;;;;;;6241999;22;20008;-70
2022/05/14 05:38:18;;;;;;;5.35;1.80;;;16.60;83.40;;;;;;6243228;22;20023;-69
2022/05/14 05:40:45;;;;;;;4.38;1.90;;;16.60;83.30;;;;;;6242011;22;20037;-69
2022/05/14 05:43:12;;;;;;;3.67;1.75;;;16.60;83.30;;;;;;6242964;22;20095;-68
2022/05/14 05:45:48;;;;;;;4.70;1.90;;;16.60;83.20;;;;;;6242780;22;20343;-69
2022/05/14 05:48:20;;;;;;;6.35;2.25;;;16.50;83.20;;;;;;6240678;23;20012;-70
2022/05/14 05:50:53;;;;;;;4.85;2.30;;;16.60;83.20;;;;;;6241697;23;20056;-69
2022/05/14 05:56:46;;;;;;;10.25;2.45;;;16.50;83.30;;;;;;6240433;23;20138;-71
2022/05/14 05:58:55;;;;;;;7.10;2.55;;;16.50;83.40;;;;;;6241888;23;20034;-71
2022/05/14 06:01:21;;;;;;;5.15;1.35;;;16.60;83.50;;;;;;6241302;23;20008;-69
2022/05/14 06:03:48;;;;;;;53.88;5.22;;;16.60;83.50;;;;;;6242273;22;20023;-69
2022/05/14 06:06:16;;;;;;;57.22;5.95;;;16.60;83.70;;;;;;6242386;22;20001;-68
2022/05/14 06:08:48;;;;;;;40.28;3.63;;;16.60;83.70;;;;;;6243323;22;19996;-70
2022/05/14 06:11:15;;;;;;;24.83;3.30;;;16.60;83.80;;;;;;6240491;23;20004;-69
2022/05/14 06:13:43;;;;;;;8.15;3.15;;;16.60;83.80;;;;;;6242770;22;20600;-69
2022/05/14 06:16:14;;;;;;;7.68;1.73;;;16.60;83.90;;;;;;6241343;22;20024;-69
2022/05/14 06:18:42;;;;;;;5.47;1.92;;;16.60;83.90;;;;;;6242874;22;19996;-68
2022/05/14 06:21:10;;;;;;;3.05;1.92;;;16.60;84.00;;;;;;6242256;22;20023;-69
2022/05/14 06:23:36;;;;;;;7.95;2.15;;;16.60;84.10;;;;;;6242257;22;20016;-68
2022/05/14 06:26:03;;;;;;;7.05;2.40;;;16.60;84.10;;;;;;6243141;22;19996;-69
2022/05/14 06:28:30;;;;;;;8.35;2.70;;;16.60;84.20;;;;;;6241652;22;20006;-69
2022/05/14 06:30:57;;;;;;;5.70;2.20;;;16.60;84.30;;;;;;6242885;22;20725;-69
2022/05/14 06:33:26;;;;;;;13.02;3.13;;;16.60;84.30;;;;;;6241502;22;20070;-69
2022/05/14 06:35:53;;;;;;;7.85;2.88;;;16.70;84.40;;;;;;6242777;22;20089;-69
2022/05/14 06:38:20;;;;;;;9.02;3.15;;;16.60;84.40;;;;;;6241624;22;20000;-69
2022/05/14 06:40:47;;;;;;;5.55;3.08;;;16.60;84.40;;;;;;6242451;22;20004;-69
2022/05/14 06:43:17;;;;;;;8.30;3.33;;;16.60;84.40;;;;;;6242337;22;20012;-70
2022/05/14 06:45:44;;;;;;;8.40;3.55;;;16.60;84.40;;;;;;6241620;22;20049;-69
2022/05/14 06:48:12;;;;;;;5.32;3.20;;;16.60;84.40;;;;;;6242452;22;20010;-69
2022/05/14 06:50:44;;;;;;;7.85;4.50;;;16.60;84.40;;;;;;6241737;22;20003;-70
2022/05/14 06:53:12;;;;;;;6.30;3.78;;;16.60;84.40;;;;;;6242957;22;20369;-70
2022/05/14 06:56:18;;;;;;;8.27;4.40;;;16.60;84.40;;;;;;6241292;22;20450;-70
2022/05/14 06:59:26;;;;;;;11.50;4.47;;;16.60;84.40;;;;;;6241592;22;20008;-70
2022/05/14 07:02:32;;;;;;;71.10;8.15;;;16.60;84.40;;;;;;6242568;22;20004;-69
2022/05/14 07:09:02;;;;;;;31.17;7.03;;;16.60;85.20;;;;;;6241227;23;20015;-69
2022/05/14 07:12:09;;;;;;;29.58;6.22;;;16.60;85.70;;;;;;6241687;22;20003;-66
2022/05/14 07:15:15;;;;;;;11.55;4.60;;;16.70;85.90;;;;;;6242742;22;19993;-69
2022/05/14 07:18:21;;;;;;;11.70;3.80;;;16.70;86.20;;;;;;6241711;22;20022;-66
2022/05/14 07:21:33;;;;;;;10.85;4.57;;;16.70;86.30;;;;;;6240820;22;20031;-68
2022/05/14 07:24:02;;;;;;;6.65;3.30;;;16.70;86.40;;;;;;6242143;23;20343;-68
2022/05/14 07:26:29;;;;;;;6.65;3.78;;;16.70;86.50;;;;;;6241739;22;20006;-69
2022/05/14 07:28:55;;;;;;;11.63;3.85;;;16.70;86.50;;;;;;6241196;22;20023;-70
2022/05/14 07:31:22;;;;;;;4.88;2.90;;;16.80;86.60;;;;;;6242338;22;19997;-69
2022/05/14 07:33:49;;;;;;;7.90;2.72;;;16.80;86.70;;;;;;6240735;22;20004;-68
2022/05/14 07:36:19;;;;;;;15.45;3.97;;;16.80;86.90;;;;;;6242135;22;20497;-69
2022/05/14 07:38:46;;;;;;;19.85;4.50;;;16.90;87.40;;;;;;6241513;22;20004;-68
2022/05/14 07:41:16;;;;;;;14.25;4.63;;;16.90;87.60;;;;;;6242286;22;20079;-70
2022/05/14 07:43:46;;;;;;;11.48;4.18;;;17.00;88.00;;;;;;6241409;22;20008;-69
2022/05/14 07:46:20;;;;;;;10.43;3.15;;;17.00;88.20;;;;;;6241073;22;20007;-68
2022/05/14 07:48:47;;;;;;;9.68;3.45;;;17.00;88.30;;;;;;6242132;22;20062;-68
2022/05/14 07:51:14;;;;;;;9.60;3.20;;;17.10;88.40;;;;;;6239025;23;20507;-69
2022/05/14 07:53:41;;;;;;;17.73;3.15;;;17.20;88.50;;;;;;6242326;22;20010;-69
2022/05/14 07:56:09;;;;;;;9.05;2.42;;;17.10;88.60;;;;;;6240768;22;19996;-70
2022/05/14 07:58:36;;;;;;;11.00;3.78;;;17.20;88.90;;;;;;6242345;22;20010;-70
2022/05/14 08:01:04;;;;;;;7.68;2.42;;;17.20;89.00;;;;;;6241997;22;20066;-71
2022/05/14 08:03:31;;;;;;;15.00;3.67;;;17.30;89.30;;;;;;6242410;22;20008;-69
2022/05/14 08:05:58;;;;;;;10.85;2.50;;;17.30;89.20;;;;;;6242111;22;20327;-67
2022/05/14 08:08:25;;;;;;;7.53;2.55;;;17.40;89.30;;;;;;6241377;22;19992;-70
2022/05/14 08:10:53;;;;;;;5.55;2.20;;;17.40;89.20;;;;;;6242569;22;20046;-70
2022/05/14 08:13:21;;;;;;;8.75;2.17;;;17.40;89.10;;;;;;6240677;22;20000;-70
2022/05/14 08:15:49;;;;;;;12.98;3.33;;;17.40;88.90;;;;;;6241312;22;20104;-69
2022/05/14 08:18:16;;;;;;;8.38;3.05;;;17.40;88.70;;;;;;6241394;22;20072;-69
2022/05/14 08:20:46;;;;;;;8.43;2.90;;;17.50;88.50;;;;;;6241435;22;20050;-65
2022/05/14 08:26:00;;;;;;;11.63;3.25;;;17.50;88.10;;;;;;6240470;23;20062;-69
2022/05/14 08:28:28;;;;;;;8.25;2.60;;;17.50;87.90;;;;;;6240184;23;20094;-69
2022/05/14 08:30:55;;;;;;;8.77;2.50;;;17.60;87.80;;;;;;6239027;23;20331;-70
2022/05/14 08:33:22;;;;;;;10.43;3.08;;;17.60;87.60;;;;;;6241901;22;20435;-70
2022/05/14 08:35:48;;;;;;;7.72;3.17;;;17.70;87.50;;;;;;6241309;22;20066;-66
2022/05/14 08:38:18;;;;;;;11.23;2.72;;;17.70;87.40;;;;;;6241366;22;20388;-69
2022/05/14 08:41:03;;;;;;;6.18;2.65;;;17.80;87.30;;;;;;6242091;22;20005;-68
2022/05/14 08:43:34;;;;;;;13.82;3.65;;;17.80;87.00;;;;;;6240572;22;20008;-69
2022/05/14 08:46:01;;;;;;;8.20;3.03;;;17.80;86.80;;;;;;6241869;22;20082;-69
2022/05/14 08:48:36;;;;;;;11.43;3.22;;;17.80;86.70;;;;;;6240822;23;20010;-69
2022/05/14 08:51:05;;;;;;;13.98;3.55;;;17.90;86.70;;;;;;6241327;22;20415;-69
2022/05/14 08:53:34;;;;;;;11.88;3.85;;;18.00;86.60;;;;;;6242080;22;20074;-67
2022/05/14 08:56:16;;;;;;;15.30;3.17;;;18.00;86.50;;;;;;6240509;22;20076;-69
2022/05/14 08:59:18;;;;;;;10.25;2.97;;;18.00;86.30;;;;;;6241675;22;20007;-68
2022/05/14 09:01:46;;;;;;;9.43;2.53;;;18.10;85.90;;;;;;6241059;22;20004;-69
2022/05/14 09:04:17;;;;;;;8.73;2.90;;;18.10;85.60;;;;;;6240884;22;20091;-69
2022/05/14 09:06:44;;;;;;;7.97;2.42;;;18.10;85.30;;;;;;6242329;22;20000;-70
2022/05/14 09:09:11;;;;;;;10.30;2.75;;;18.20;85.20;;;;;;6240519;22;20007;-70
2022/05/14 09:11:39;;;;;;;9.93;2.40;;;18.20;85.10;;;;;;6243416;22;20075;-69
2022/05/14 09:14:21;;;;;;;12.32;2.80;;;18.30;85.10;;;;;;6242354;22;20012;-69
2022/05/14 09:16:51;;;;;;;10.68;2.75;;;18.30;85.10;;;;;;6242983;22;20043;-70
2022/05/14 09:19:20;;;;;;;9.85;3.15;;;18.40;85.10;;;;;;6243136;22;20004;-69
2022/05/14 09:21:58;;;;;;;7.88;2.50;;;18.50;84.80;;;;;;6242672;22;20000;-69
2022/05/14 09:24:28;;;;;;;8.00;3.55;;;18.50;85.10;;;;;;6243619;22;20012;-68
2022/05/14 09:27:07;;;;;;;11.82;3.50;;;18.60;84.10;;;;;;6242274;22;20035;-69
2022/05/14 09:29:44;;;;;;;11.88;3.97;;;18.60;83.90;;;;;;6243600;22;20087;-67
2022/05/14 09:32:20;;;;;;;14.70;4.35;;;18.70;84.20;;;;;;6242978;22;20079;-68
2022/05/14 09:34:47;;;;;;;15.63;4.82;;;18.70;84.10;;;;;;6242397;22;20351;-67
2022/05/14 09:37:19;;;;;;;14.90;3.90;;;18.60;83.80;;;;;;6243398;22;20003;-68
2022/05/14 09:40:09;;;;;;;13.13;4.65;;;18.70;83.80;;;;;;6241835;22;20447;-68
2022/05/14 09:42:44;;;;;;;16.85;3.92;;;18.70;83.60;;;;;;6243374;22;20463;-69
2022/05/14 09:45:22;;;;;;;22.65;4.22;;;18.80;83.50;;;;;;6242844;22;20004;-69
2022/05/14 09:47:49;;;;;;;17.35;3.60;;;18.80;83.00;;;;;;6240515;23;20080;-69
2022/05/14 09:50:21;;;;;;;13.40;3.85;;;18.80;82.90;;;;;;6243348;22;20000;-69
2022/05/14 09:52:57;;;;;;;14.45;3.85;;;18.90;82.70;;;;;;6242117;22;20057;-68
2022/05/14 09:55:35;;;;;;;10.65;4.47;;;18.90;82.50;;;;;;6243064;22;20069;-67
2022/05/14 09:58:15;;;;;;;10.48;2.50;;;19.00;82.10;;;;;;6242573;22;20000;-69
2022/05/14 10:01:10;;;;;;;12.48;3.45;;;19.00;81.50;;;;;;6242129;22;19996;-68
2022/05/14 10:04:04;;;;;;;7.20;2.50;;;19.10;81.20;;;;;;6242960;22;20442;-68
2022/05/14 10:06:52;;;;;;;6.28;2.60;;;19.10;80.90;;;;;;6242072;22;20368;-69
2022/05/14 10:09:32;;;;;;;8.80;2.83;;;19.20;80.50;;;;;;6242465;22;20313;-65
2022/05/14 10:12:30;;;;;;;14.48;3.90;;;19.20;80.00;;;;;;6243079;22;20000;-64
2022/05/14 10:15:11;;;;;;;6.70;2.42;;;19.30;80.00;;;;;;6229180;23;20004;-69
2022/05/14 10:17:50;;;;;;;17.65;4.68;;;19.30;79.60;;;;;;6242217;22;20094;-67
2022/05/14 10:20:38;;;;;;;14.07;4.18;;;19.40;79.60;;;;;;6243080;22;20423;-66
2022/05/14 10:27:18;;;;;;;31.75;10.82;;;19.50;78.50;;;;;;6212631;22;20019;-67
2022/05/14 10:30:05;;;;;;;21.25;6.88;;;19.50;78.30;;;;;;6149900;23;20148;-68
2022/05/14 10:32:32;;;;;;;17.88;5.97;;;19.40;78.90;;;;;;6235848;22;20005;-68
2022/05/14 10:35:19;;;;;;;17.30;6.32;;;19.40;79.00;;;;;;6242233;22;19997;-65
2022/05/14 10:37:57;;;;;;;15.57;5.47;;;19.30;78.90;;;;;;6242845;22;20011;-68
2022/05/14 10:40:30;;;;;;;16.30;5.85;;;19.30;79.00;;;;;;6241560;22;20324;-66
2022/05/14 10:43:07;;;;;;;21.20;5.70;;;19.20;78.90;;;;;;6243011;22;20075;-67
2022/05/14 10:45:41;;;;;;;27.48;6.05;;;19.10;79.50;;;;;;6241857;22;20055;-64
2022/05/14 10:48:11;;;;;;;18.90;5.43;;;19.10;80.00;;;;;;6242041;22;20000;-66
2022/05/14 10:50:37;;;;;;;13.50;5.35;;;19.00;80.20;;;;;;6243440;22;20000;-67
2022/05/14 10:53:08;;;;;;;16.42;5.43;;;19.00;80.40;;;;;;6241210;22;20075;-66
2022/05/14 10:55:50;;;;;;;19.10;5.18;;;19.00;80.60;;;;;;6242630;22;19996;-67
2022/05/14 10:58:39;;;;;;;16.15;5.63;;;19.00;80.80;;;;;;6241382;22;20054;-68
2022/05/14 11:01:28;;;;;;;18.08;4.70;;;19.00;81.10;;;;;;6241979;22;20014;-69
2022/05/14 11:04:08;;;;;;;18.42;5.47;;;19.00;81.10;;;;;;6241653;23;20324;-69
2022/05/14 11:06:55;;;;;;;9.38;3.95;;;19.00;80.80;;;;;;6241203;22;20075;-65
2022/05/14 11:09:44;;;;;;;14.38;3.63;;;19.00;80.60;;;;;;6243085;22;20000;-65
2022/05/14 11:12:16;;;;;;;15.65;4.32;;;19.00;80.30;;;;;;6242618;23;20031;-65
2022/05/14 11:14:47;;;;;;;16.38;3.78;;;19.10;80.20;;;;;;6241861;22;19999;-67
2022/05/14 11:17:19;;;;;;;14.50;3.10;;;19.20;79.90;;;;;;6242839;22;20094;-67
2022/05/14 11:19:45;;;;;;;10.73;3.75;;;19.30;79.70;;;;;;6241882;22;20064;-68
2022/05/14 11:22:24;;;;;;;18.88;4.88;;;19.40;79.30;;;;;;6242970;22;20049;-67
2022/05/14 11:24:52;;;;;;;16.35;3.42;;;19.40;78.80;;;;;;6242532;22;20046;-64
2022/05/14 11:27:31;;;;;;;13.60;3.20;;;19.50;78.60;;;;;;6242157;22;20434;-68
2022/05/14 11:30:05;;;;;;;13.55;3.75;;;19.60;78.60;;;;;;6243297;22;20005;-68
2022/05/14 11:32:51;;;;;;;9.48;2.88;;;19.70;77.90;;;;;;6241515;22;20004;-68
2022/05/14 11:35:20;;;;;;;11.95;2.90;;;19.70;76.80;;;;;;6242755;22;20011;-66
2022/05/14 11:37:50;;;;;;;10.35;3.17;;;19.90;76.30;;;;;;6242449;22;20438;-67
2022/05/14 11:40:19;;;;;;;8.23;2.65;;;19.90;75.20;;;;;;6240926;23;20075;-64
2022/05/14 11:43:10;;;;;;;9.52;2.35;;;20.00;74.20;;;;;;6242873;22;20000;-68
2022/05/14 11:45:48;;;;;;;8.60;1.90;;;20.00;73.40;;;;;;6241473;22;20003;-64
2022/05/14 11:48:40;;;;;;;6.65;2.13;;;20.00;72.40;;;;;;6242969;22;20075;-65
2022/05/14 11:51:27;;;;;;;7.05;2.63;;;20.10;72.10;;;;;;6242734;22;20004;-66
2022/05/14 11:54:04;;;;;;;6.50;1.50;;;20.20;71.00;;;;;;6241620;22;20008;-67
2022/05/14 11:56:44;;;;;;;8.55;2.65;;;20.20;70.10;;;;;;6242772;22;20458;-65
2022/05/14 11:59:26;;;;;;;8.85;2.45;;;20.30;69.80;;;;;;6242351;22;19997;-65
2022/05/14 12:01:59;;;;;;;11.00;1.80;;;20.30;69.50;;;;;;6242141;22;20093;-66
2022/05/14 12:04:36;;;;;;;11.98;2.40;;;20.40;68.80;;;;;;6242847;22;20012;-64
2022/05/14 12:07:25;;;;;;;5.35;1.88;;;20.40;68.90;;;;;;6241183;22;20031;-67
2022/05/14 12:10:30;;;;;;;8.38;1.77;;;20.50;69.00;;;;;;6242589;23;20004;-65
2022/05/14 12:13:52;;;;;;;9.32;2.03;;;20.60;68.60;;;;;;6242029;23;20327;-69
2022/05/14 12:16:58;;;;;;;8.52;3.10;;;20.60;68.20;;;;;;6242082;22;20454;-67
2022/05/14 12:20:07;;;;;;;5.18;1.98;;;20.70;67.40;;;;;;6240360;23;20612;-68
2022/05/14 12:23:17;;;;;;;13.15;4.40;;;20.80;67.00;;;;;;6241106;22;20016;-66
2022/05/14 12:25:49;;;;;;;10.25;5.00;;;20.80;66.50;;;;;;6239200;23;20008;-70
2022/05/14 12:28:47;;;;;;;8.75;4.28;;;20.90;66.80;;;;;;6239953;22;20004;-70
2022/05/14 12:34:02;;;;;;;8.13;2.90;;;21.00;65.80;;;;;;6240114;23;20011;-70
2022/05/14 12:36:35;;;;;;;6.90;3.00;;;21.10;65.80;;;;;;6240142;22;20007;-65
2022/05/14 12:39:09;;;;;;;6.03;2.00;;;21.10;65.50;;;;;;6241175;22;20439;-64
2022/05/14 12:41:41;;;;;;;9.75;1.70;;;21.10;64.90;;;;;;6239693;22;20098;-65
2022/05/14 12:44:22;;;;;;;10.57;2.80;;;21.20;64.80;;;;;;6241667;22;20005;-65
2022/05/14 12:47:09;;;;;;;;;;;;;;;;;;;;;
2022/05/14 12:49:47;;;;;;;4.22;1.42;;;21.20;63.40;;;;;;6242582;23;20088;-65
2022/05/14 12:52:21;;;;;;;5.57;1.52;;;21.20;63.00;;;;;;6242667;22;20031;-66
2022/05/14 12:55:09;;;;;;;7.75;1.30;;;21.20;62.60;;;;;;6241329;22;20004;-68
2022/05/14 12:57:38;;;;;;;22.80;1.60;;;21.20;62.10;;;;;;6242643;22;20004;-65
2022/05/14 13:00:07;;;;;;;7.30;1.77;;;21.20;61.80;;;;;;6241773;22;20039;-64
2022/05/14 13:02:39;;;;;;;8.82;2.10;;;21.20;61.60;;;;;;6242539;22;20407;-67
2022/05/14 13:05:34;;;;;;;5.32;1.50;;;21.30;61.70;;;;;;6242710;22;19996;-67
2022/05/14 13:08:14;;;;;;;10.60;2.00;;;21.30;61.70;;;;;;6239927;23;20008;-63
2022/05/14 13:10:52;;;;;;;5.85;1.55;;;21.20;61.00;;;;;;6243240;22;20004;-65
2022/05/14 13:13:27;;;;;;;8.23;1.80;;;21.30;60.80;;;;;;6240261;23;20008;-64
2022/05/14 13:15:55;;;;;;;9.88;2.65;;;21.30;60.70;;;;;;6242197;22;20023;-66
2022/05/14 13:18:28;;;;;;;8.32;3.70;;;21.30;60.80;;;;;;6243122;22;20004;-69
2022/05/14 13:21:20;;;;;;;9.80;3.65;;;21.30;60.90;;;;;;6241616;22;20007;-69
2022/05/14 13:23:57;;;;;;;8.90;2.85;;;21.30;60.60;;;;;;6243193;22;20012;-65
2022/05/14 13:26:45;;;;;;;7.65;1.95;;;21.30;60.80;;;;;;6242059;22;20082;-66
2022/05/14 13:29:23;;;;;;;5.30;1.33;;;21.30;60.40;;;;;;6242279;22;20004;-69
2022/05/14 13:31:51;;;;;;;6.72;2.08;;;21.30;60.20;;;;;;6243063;22;20004;-67
2022/05/14 13:37:28;;;;;;;14.82;4.97;;;21.30;59.60;;;;;;6242469;23;20019;-68
2022/05/14 13:39:58;;;;;;;87.88;9.75;;;21.20;59.30;;;;;;6242940;22;20008;-65
2022/05/14 13:42:29;;;;;;;45.70;4.65;;;21.30;59.30;;;;;;6241524;22;20062;-69
2022/05/14 13:45:10;;;;;;;20.95;4.03;;;21.30;59.90;;;;;;6242686;22;20004;-69